Time,TemperatureF,DewpointF,PressureIn,WindDirection,WindDirectionDegrees,WindSpeedMPH,WindSpeedGustMPH,Humidity,HourlyPrecipIn,Conditions,Clouds,dailyrainin,SolarRadiationWatts/m^2,SoftwareType,DateUTC
2013-08-01 00:12:00,60.0,32.0,-100.00,South,176,5.0,11.0,34,0.00,,,0.00,0.000000,,2013-08-01 07:12:00,
2013-08-01 00:22:00,60.0,32.0,-100.00,South,176,5.0,11.0,34,0.00,,,0.00,0.000000,,2013-08-01 07:22:00,
2013-08-01 00:32:00,60.0,32.0,-100.00,South,176,5.0,11.0,34,0.00,,,0.00,0.000000,,2013-08-01 07:32:00,
2013-08-01 00:43:00,60.0,32.0,-100.00,South,176,5.0,11.0,34,0.00,,,0.00,0.000000,,2013-08-01 07:43:00,
2013-08-01 01:15:00,58.0,33.0,-100.00,South,175,5.0,9.0,38,0.00,,,0.00,0.000000,,2013-08-01 08:15:00,
2013-08-01 01:22:00,58.0,33.0,-100.00,South,175,5.0,9.0,38,0.00,,,0.00,0.000000,,2013-08-01 08:22:00,
2013-08-01 01:34:00,58.0,33.0,-100.00,South,175,5.0,9.0,38,0.00,,,0.00,0.000000,,2013-08-01 08:34:00,
2013-08-01 02:17:00,57.0,31.0,-100.00,South,185,6.0,11.0,37,0.00,,,0.00,0.000000,,2013-08-01 09:17:00,
2013-08-01 02:26:00,57.0,31.0,-100.00,South,185,6.0,11.0,37,0.00,,,0.00,0.000000,,2013-08-01 09:26:00,
2013-08-01 03:18:00,56.0,31.0,-100.00,South,171,5.0,10.0,38,0.00,,,-99.99,0.000000,,2013-08-01 10:18:00,
2013-08-01 03:37:00,56.0,31.0,-100.00,South,171,5.0,10.0,38,0.00,,,-99.99,0.000000,,2013-08-01 10:37:00,
2013-08-01 03:47:00,56.0,31.0,-100.00,South,171,5.0,10.0,38,0.00,,,-99.99,0.000000,,2013-08-01 10:47:00,
2013-08-01 04:15:00,53.0,29.0,-100.00,SSE,158,5.0,10.0,40,0.00,,,0.00,0.000000,,2013-08-01 11:15:00,
2013-08-01 04:28:00,53.0,29.0,-100.00,SSE,158,5.0,10.0,40,0.00,,,0.00,0.000000,,2013-08-01 11:28:00,
2013-08-01 04:36:00,53.0,29.0,-100.00,SSE,158,5.0,10.0,40,0.00,,,0.00,0.000000,,2013-08-01 11:36:00,
2013-08-01 05:15:00,49.0,30.0,-100.00,ESE,117,3.0,10.0,48,0.00,,,0.00,0.000000,,2013-08-01 12:15:00,
2013-08-01 05:27:00,49.0,30.0,-100.00,ESE,117,3.0,10.0,48,0.00,,,0.00,0.000000,,2013-08-01 12:27:00,
2013-08-01 05:44:00,49.0,30.0,-100.00,ESE,117,3.0,10.0,48,0.00,,,0.00,0.000000,,2013-08-01 12:44:00,
2013-08-01 06:26:00,46.0,31.0,-100.00,ESE,113,0.0,3.0,55,0.00,,,0.00,0.000000,,2013-08-01 13:26:00,
2013-08-01 08:17:00,55.0,35.0,-100.00,SE,128,0.0,5.0,46,-99.99,,,0.00,40.000000,,2013-08-01 15:17:00,
2013-08-01 08:25:00,55.0,35.0,-100.00,SE,128,0.0,5.0,46,-99.99,,,0.00,40.000000,,2013-08-01 15:25:00,
2013-08-01 10:27:00,69.0,31.0,-100.00,WSW,243,10.0,19.0,24,-99.99,,,0.00,715.000000,,2013-08-01 17:27:00,
2013-08-01 11:16:00,70.0,29.0,-100.00,SW,214,10.0,28.0,22,0.00,,,0.00,898.000000,,2013-08-01 18:16:00,
2013-08-01 11:27:00,70.0,29.0,-100.00,SW,214,10.0,28.0,22,0.00,,,0.00,898.000000,,2013-08-01 18:27:00,
2013-08-01 11:35:00,70.0,29.0,-100.00,SW,214,10.0,28.0,22,0.00,,,0.00,898.000000,,2013-08-01 18:35:00,
2013-08-01 11:45:00,70.0,29.0,-100.00,SW,214,10.0,28.0,22,0.00,,,0.00,898.000000,,2013-08-01 18:45:00,
2013-08-01 12:45:00,74.0,25.0,-100.00,WSW,238,10.0,25.0,16,0.00,,,0.00,1072.000000,,2013-08-01 19:45:00,
2013-08-01 13:24:00,75.0,19.0,-100.00,SSE,154,9.0,26.0,12,0.00,,,0.00,1169.000000,,2013-08-01 20:24:00,
2013-08-01 13:34:00,75.0,19.0,-100.00,SSE,154,9.0,26.0,12,0.00,,,0.00,1169.000000,,2013-08-01 20:34:00,
2013-08-01 13:44:00,75.0,19.0,-100.00,SSE,154,9.0,26.0,12,0.00,,,0.00,1169.000000,,2013-08-01 20:44:00,
2013-08-01 14:14:00,75.0,17.0,-100.00,SSW,209,10.0,23.0,11,0.00,,,0.00,1190.000000,,2013-08-01 21:14:00,
2013-08-01 14:24:00,75.0,17.0,-100.00,SSW,209,10.0,23.0,11,0.00,,,0.00,1190.000000,,2013-08-01 21:24:00,
2013-08-01 14:34:00,75.0,17.0,-100.00,SSW,209,10.0,23.0,11,0.00,,,0.00,1190.000000,,2013-08-01 21:34:00,
2013-08-01 14:43:00,75.0,17.0,-100.00,SSW,209,10.0,23.0,11,0.00,,,0.00,1190.000000,,2013-08-01 21:43:00,
2013-08-01 16:14:00,77.0,11.0,-100.00,SW,236,9.0,24.0,8,0.00,,,0.00,1033.000000,,2013-08-01 23:14:00,
2013-08-01 16:24:00,77.0,11.0,-100.00,SW,236,9.0,24.0,8,0.00,,,0.00,1033.000000,,2013-08-01 23:24:00,
2013-08-01 16:32:00,77.0,11.0,-100.00,SW,236,9.0,24.0,8,0.00,,,0.00,1033.000000,,2013-08-01 23:32:00,
2013-08-01 17:15:00,77.0,16.0,-100.00,West,275,10.0,20.0,10,0.00,,,0.00,859.000000,,2013-08-02 00:15:00,
2013-08-01 17:44:00,77.0,16.0,-100.00,West,275,10.0,20.0,10,0.00,,,0.00,859.000000,,2013-08-02 00:44:00,
2013-08-01 18:14:00,76.0,20.0,-100.00,ENE,57,8.0,22.0,12,0.00,,,0.00,639.000000,,2013-08-02 01:14:00,
2013-08-01 18:34:00,76.0,20.0,-100.00,ENE,57,8.0,22.0,12,0.00,,,0.00,639.000000,,2013-08-02 01:34:00,
2013-08-01 18:43:00,76.0,20.0,-100.00,ENE,57,8.0,22.0,12,0.00,,,0.00,639.000000,,2013-08-02 01:43:00,
2013-08-01 19:34:00,73.0,19.0,-100.00,ENE,70,5.0,21.0,13,0.00,,,0.00,401.000000,,2013-08-02 02:34:00,
2013-08-01 19:44:00,73.0,19.0,-100.00,ENE,70,5.0,21.0,13,0.00,,,0.00,401.000000,,2013-08-02 02:44:00,
2013-08-01 20:12:00,68.0,19.0,-100.00,WSW,241,3.0,15.0,15,0.00,,,0.00,152.000000,,2013-08-02 03:12:00,
2013-08-01 20:23:00,68.0,19.0,-100.00,WSW,241,3.0,15.0,15,0.00,,,0.00,152.000000,,2013-08-02 03:23:00,
2013-08-01 20:33:00,68.0,19.0,-100.00,WSW,241,3.0,15.0,15,0.00,,,0.00,152.000000,,2013-08-02 03:33:00,
2013-08-01 20:44:00,68.0,19.0,-100.00,WSW,241,3.0,15.0,15,0.00,,,0.00,152.000000,,2013-08-02 03:44:00,
2013-08-01 21:12:00,62.0,19.0,-100.00,SSW,204,4.0,11.0,19,0.00,,,0.00,4.000000,,2013-08-02 04:12:00,
2013-08-01 21:22:00,62.0,19.0,-100.00,SSW,204,4.0,11.0,19,0.00,,,0.00,4.000000,,2013-08-02 04:22:00,
2013-08-01 21:33:00,62.0,19.0,-100.00,SSW,204,4.0,11.0,19,0.00,,,0.00,4.000000,,2013-08-02 04:33:00,
2013-08-01 21:43:00,62.0,19.0,-100.00,SSW,204,4.0,11.0,19,0.00,,,0.00,4.000000,,2013-08-02 04:43:00,
2013-08-01 22:12:00,59.0,22.0,-100.00,South,190,1.0,8.0,24,0.00,,,0.00,0.000000,,2013-08-02 05:12:00,
2013-08-01 22:22:00,59.0,22.0,-100.00,South,190,1.0,8.0,24,0.00,,,0.00,0.000000,,2013-08-02 05:22:00,
2013-08-01 22:32:00,59.0,22.0,-100.00,South,190,1.0,8.0,24,0.00,,,0.00,0.000000,,2013-08-02 05:32:00,
2013-08-01 22:43:00,59.0,22.0,-100.00,South,190,1.0,8.0,24,0.00,,,0.00,0.000000,,2013-08-02 05:43:00,
2013-08-01 23:12:00,54.0,22.0,-100.00,East,83,0.0,6.0,29,0.00,,,0.00,0.000000,,2013-08-02 06:12:00,
2013-08-01 23:22:00,54.0,22.0,-100.00,East,83,0.0,6.0,29,0.00,,,0.00,0.000000,,2013-08-02 06:22:00,
2013-08-01 23:33:00,54.0,22.0,-100.00,East,83,0.0,6.0,29,0.00,,,0.00,0.000000,,2013-08-02 06:33:00,
2013-08-01 23:43:00,54.0,22.0,-100.00,East,83,0.0,6.0,29,0.00,,,0.00,0.000000,,2013-08-02 06:43:00,